sensor_id;sensor_type;location;lat;lon;timestamp;P1;durP1;ratioP1;P2;durP2;ratioP2
65581;SDS011;52231;40.090;18.348;2023-04-03T00:02:08;17.38;;;4.70;;
65581;SDS011;52231;40.090;18.348;2023-04-03T00:04:37;14.05;;;4.25;;
65581;SDS011;52231;40.090;18.348;2023-04-03T00:07:05;16.35;;;4.70;;
65581;SDS011;52231;40.090;18.348;2023-04-03T00:09:34;18.52;;;4.50;;
65581;SDS011;52231;40.090;18.348;2023-04-03T00:12:02;13.93;;;4.38;;
65581;SDS011;52231;40.090;18.348;2023-04-03T00:14:31;15.52;;;4.55;;
65581;SDS011;52231;40.090;18.348;2023-04-03T00:16:59;14.18;;;4.78;;
65581;SDS011;52231;40.090;18.348;2023-04-03T00:19:27;16.25;;;4.65;;
65581;SDS011;52231;40.090;18.348;2023-04-03T00:21:56;17.13;;;4.55;;
65581;SDS011;52231;40.090;18.348;2023-04-03T00:24:24;14.43;;;5.05;;
65581;SDS011;52231;40.090;18.348;2023-04-03T00:26:52;18.88;;;5.38;;
65581;SDS011;52231;40.090;18.348;2023-04-03T00:29:20;17.55;;;5.25;;
65581;SDS011;52231;40.090;18.348;2023-04-03T00:31:49;16.92;;;5.55;;
65581;SDS011;52231;40.090;18.348;2023-04-03T00:34:17;17.85;;;5.05;;
65581;SDS011;52231;40.090;18.348;2023-04-03T00:36:47;16.15;;;4.57;;
65581;SDS011;52231;40.090;18.348;2023-04-03T00:39:15;18.90;;;5.15;;
65581;SDS011;52231;40.090;18.348;2023-04-03T00:41:43;14.75;;;4.90;;
65581;SDS011;52231;40.090;18.348;2023-04-03T00:47:08;18.45;;;4.93;;
65581;SDS011;52231;40.090;18.348;2023-04-03T00:49:39;15.85;;;4.97;;
65581;SDS011;52231;40.090;18.348;2023-04-03T00:52:09;12.52;;;4.95;;
65581;SDS011;52231;40.090;18.348;2023-04-03T00:54:43;17.42;;;5.70;;
65581;SDS011;52231;40.090;18.348;2023-04-03T00:57:14;16.75;;;5.30;;
65581;SDS011;52231;40.090;18.348;2023-04-03T00:59:45;17.83;;;5.45;;
65581;SDS011;52231;40.090;18.348;2023-04-03T01:02:18;19.33;;;5.38;;
65581;SDS011;52231;40.090;18.348;2023-04-03T01:04:48;18.35;;;5.50;;
65581;SDS011;52231;40.090;18.348;2023-04-03T01:09:45;18.45;;;4.78;;
65581;SDS011;52231;40.090;18.348;2023-04-03T01:12:20;15.05;;;5.25;;
65581;SDS011;52231;40.090;18.348;2023-04-03T01:14:58;16.55;;;4.85;;
65581;SDS011;52231;40.090;18.348;2023-04-03T01:17:30;17.02;;;4.85;;
65581;SDS011;52231;40.090;18.348;2023-04-03T01:25:03;14.43;;;4.50;;
65581;SDS011;52231;40.090;18.348;2023-04-03T01:27:32;20.10;;;5.10;;
65581;SDS011;52231;40.090;18.348;2023-04-03T01:30:06;17.33;;;4.57;;
65581;SDS011;52231;40.090;18.348;2023-04-03T01:32:36;17.52;;;5.18;;
65581;SDS011;52231;40.090;18.348;2023-04-03T01:35:04;16.02;;;5.10;;
65581;SDS011;52231;40.090;18.348;2023-04-03T01:37:35;16.50;;;4.90;;
65581;SDS011;52231;40.090;18.348;2023-04-03T01:40:04;15.05;;;4.38;;
65581;SDS011;52231;40.090;18.348;2023-04-03T01:42:34;14.50;;;4.00;;
65581;SDS011;52231;40.090;18.348;2023-04-03T01:45:02;19.25;;;4.55;;
65581;SDS011;52231;40.090;18.348;2023-04-03T01:47:32;16.55;;;4.03;;
65581;SDS011;52231;40.090;18.348;2023-04-03T01:50:00;16.55;;;3.70;;
65581;SDS011;52231;40.090;18.348;2023-04-03T01:52:32;15.27;;;3.72;;
65581;SDS011;52231;40.090;18.348;2023-04-03T01:55:02;19.17;;;4.20;;
65581;SDS011;52231;40.090;18.348;2023-04-03T01:57:31;16.13;;;3.42;;
65581;SDS011;52231;40.090;18.348;2023-04-03T02:00:00;22.73;;;3.63;;
65581;SDS011;52231;40.090;18.348;2023-04-03T02:02:39;16.58;;;3.70;;
65581;SDS011;52231;40.090;18.348;2023-04-03T02:05:10;15.40;;;3.13;;
65581;SDS011;52231;40.090;18.348;2023-04-03T02:07:38;13.27;;;3.10;;
65581;SDS011;52231;40.090;18.348;2023-04-03T02:10:08;19.88;;;3.88;;
65581;SDS011;52231;40.090;18.348;2023-04-03T02:12:37;15.85;;;3.40;;
65581;SDS011;52231;40.090;18.348;2023-04-03T02:15:05;17.73;;;3.42;;
65581;SDS011;52231;40.090;18.348;2023-04-03T02:17:36;18.65;;;3.47;;
65581;SDS011;52231;40.090;18.348;2023-04-03T02:20:04;17.88;;;3.45;;
65581;SDS011;52231;40.090;18.348;2023-04-03T02:22:34;17.73;;;3.42;;
65581;SDS011;52231;40.090;18.348;2023-04-03T02:25:02;19.15;;;3.70;;
65581;SDS011;52231;40.090;18.348;2023-04-03T02:29:59;20.25;;;3.67;;
65581;SDS011;52231;40.090;18.348;2023-04-03T02:32:28;20.63;;;3.72;;
65581;SDS011;52231;40.090;18.348;2023-04-03T02:34:57;15.27;;;3.95;;
65581;SDS011;52231;40.090;18.348;2023-04-03T02:39:54;19.35;;;3.20;;
65581;SDS011;52231;40.090;18.348;2023-04-03T02:42:22;13.30;;;3.50;;
65581;SDS011;52231;40.090;18.348;2023-04-03T02:44:51;16.15;;;3.55;;
65581;SDS011;52231;40.090;18.348;2023-04-03T02:47:19;19.33;;;4.10;;
65581;SDS011;52231;40.090;18.348;2023-04-03T02:52:16;14.57;;;2.88;;
65581;SDS011;52231;40.090;18.348;2023-04-03T02:54:45;22.40;;;3.88;;
65581;SDS011;52231;40.090;18.348;2023-04-03T02:57:13;15.93;;;2.78;;
65581;SDS011;52231;40.090;18.348;2023-04-03T02:59:43;17.20;;;3.33;;
65581;SDS011;52231;40.090;18.348;2023-04-03T03:02:12;21.70;;;3.30;;
65581;SDS011;52231;40.090;18.348;2023-04-03T03:04:40;17.48;;;3.17;;
65581;SDS011;52231;40.090;18.348;2023-04-03T03:07:10;15.55;;;3.42;;
65581;SDS011;52231;40.090;18.348;2023-04-03T03:09:38;19.50;;;3.35;;
65581;SDS011;52231;40.090;18.348;2023-04-03T03:12:07;17.77;;;3.33;;
65581;SDS011;52231;40.090;18.348;2023-04-03T03:14:36;17.33;;;2.95;;
65581;SDS011;52231;40.090;18.348;2023-04-03T03:17:04;17.23;;;3.20;;
65581;SDS011;52231;40.090;18.348;2023-04-03T03:19:33;14.18;;;2.55;;
65581;SDS011;52231;40.090;18.348;2023-04-03T03:22:01;16.25;;;3.53;;
65581;SDS011;52231;40.090;18.348;2023-04-03T03:24:31;18.98;;;3.00;;
65581;SDS011;52231;40.090;18.348;2023-04-03T03:27:00;15.60;;;2.85;;
65581;SDS011;52231;40.090;18.348;2023-04-03T03:29:28;19.33;;;3.20;;
65581;SDS011;52231;40.090;18.348;2023-04-03T03:34:25;20.23;;;3.33;;
65581;SDS011;52231;40.090;18.348;2023-04-03T03:39:22;16.27;;;3.10;;
65581;SDS011;52231;40.090;18.348;2023-04-03T03:41:51;14.20;;;2.80;;
65581;SDS011;52231;40.090;18.348;2023-04-03T03:44:21;19.73;;;3.28;;
65581;SDS011;52231;40.090;18.348;2023-04-03T03:46:49;20.02;;;2.90;;
65581;SDS011;52231;40.090;18.348;2023-04-03T03:49:18;20.13;;;3.17;;
65581;SDS011;52231;40.090;18.348;2023-04-03T03:54:14;21.63;;;3.08;;
65581;SDS011;52231;40.090;18.348;2023-04-03T03:56:43;17.73;;;3.00;;
65581;SDS011;52231;40.090;18.348;2023-04-03T04:01:41;16.00;;;3.10;;
65581;SDS011;52231;40.090;18.348;2023-04-03T04:04:09;15.20;;;2.75;;
65581;SDS011;52231;40.090;18.348;2023-04-03T04:09:09;12.52;;;2.88;;
65581;SDS011;52231;40.090;18.348;2023-04-03T04:11:37;17.92;;;3.17;;
65581;SDS011;52231;40.090;18.348;2023-04-03T04:14:09;16.23;;;3.45;;
65581;SDS011;52231;40.090;18.348;2023-04-03T04:16:41;18.13;;;3.65;;
65581;SDS011;52231;40.090;18.348;2023-04-03T04:19:15;18.30;;;3.40;;
65581;SDS011;52231;40.090;18.348;2023-04-03T04:21:44;13.68;;;3.30;;
65581;SDS011;52231;40.090;18.348;2023-04-03T04:24:13;17.63;;;3.60;;
65581;SDS011;52231;40.090;18.348;2023-04-03T04:26:42;14.93;;;3.13;;
65581;SDS011;52231;40.090;18.348;2023-04-03T04:29:12;19.48;;;3.47;;
65581;SDS011;52231;40.090;18.348;2023-04-03T04:31:41;14.75;;;3.58;;
65581;SDS011;52231;40.090;18.348;2023-04-03T04:34:09;17.42;;;3.72;;
65581;SDS011;52231;40.090;18.348;2023-04-03T04:36:38;16.92;;;3.63;;
65581;SDS011;52231;40.090;18.348;2023-04-03T04:39:08;22.75;;;4.10;;
65581;SDS011;52231;40.090;18.348;2023-04-03T04:41:36;24.10;;;4.20;;
65581;SDS011;52231;40.090;18.348;2023-04-03T04:44:05;15.90;;;3.90;;
65581;SDS011;52231;40.090;18.348;2023-04-03T04:46:35;22.95;;;3.72;;
65581;SDS011;52231;40.090;18.348;2023-04-03T04:49:04;19.00;;;4.35;;
65581;SDS011;52231;40.090;18.348;2023-04-03T04:51:34;17.88;;;3.85;;
65581;SDS011;52231;40.090;18.348;2023-04-03T04:54:08;19.45;;;4.05;;
65581;SDS011;52231;40.090;18.348;2023-04-03T04:56:38;20.00;;;4.53;;
65581;SDS011;52231;40.090;18.348;2023-04-03T04:59:07;17.58;;;3.88;;
65581;SDS011;52231;40.090;18.348;2023-04-03T05:01:35;15.20;;;3.92;;
65581;SDS011;52231;40.090;18.348;2023-04-03T05:04:09;15.48;;;4.75;;
65581;SDS011;52231;40.090;18.348;2023-04-03T05:06:44;22.25;;;4.28;;
65581;SDS011;52231;40.090;18.348;2023-04-03T05:09:17;15.15;;;3.40;;
65581;SDS011;52231;40.090;18.348;2023-04-03T05:11:48;11.68;;;4.00;;
65581;SDS011;52231;40.090;18.348;2023-04-03T05:14:19;18.45;;;4.78;;
65581;SDS011;52231;40.090;18.348;2023-04-03T05:16:49;17.02;;;4.80;;
65581;SDS011;52231;40.090;18.348;2023-04-03T05:19:23;18.67;;;4.80;;
65581;SDS011;52231;40.090;18.348;2023-04-03T05:21:53;23.55;;;5.50;;
65581;SDS011;52231;40.090;18.348;2023-04-03T05:24:36;21.65;;;4.97;;
65581;SDS011;52231;40.090;18.348;2023-04-03T05:27:06;21.05;;;4.95;;
65581;SDS011;52231;40.090;18.348;2023-04-03T05:29:38;23.95;;;4.82;;
65581;SDS011;52231;40.090;18.348;2023-04-03T05:32:08;21.52;;;5.13;;
65581;SDS011;52231;40.090;18.348;2023-04-03T05:34:37;20.35;;;5.25;;
65581;SDS011;52231;40.090;18.348;2023-04-03T05:37:05;18.52;;;4.53;;
65581;SDS011;52231;40.090;18.348;2023-04-03T05:39:34;15.68;;;4.55;;
65581;SDS011;52231;40.090;18.348;2023-04-03T05:42:05;17.42;;;4.75;;
65581;SDS011;52231;40.090;18.348;2023-04-03T05:44:37;13.73;;;4.63;;
65581;SDS011;52231;40.090;18.348;2023-04-03T05:47:06;22.45;;;5.05;;
65581;SDS011;52231;40.090;18.348;2023-04-03T05:49:35;18.95;;;4.80;;
65581;SDS011;52231;40.090;18.348;2023-04-03T05:54:54;18.73;;;4.75;;
65581;SDS011;52231;40.090;18.348;2023-04-03T05:57:26;16.98;;;5.20;;
65581;SDS011;52231;40.090;18.348;2023-04-03T05:59:55;19.88;;;4.90;;
65581;SDS011;52231;40.090;18.348;2023-04-03T06:02:25;19.55;;;4.97;;
65581;SDS011;52231;40.090;18.348;2023-04-03T06:04:55;18.77;;;5.25;;
65581;SDS011;52231;40.090;18.348;2023-04-03T06:07:25;17.25;;;5.05;;
65581;SDS011;52231;40.090;18.348;2023-04-03T06:09:59;18.05;;;5.03;;
65581;SDS011;52231;40.090;18.348;2023-04-03T06:12:29;17.77;;;4.97;;
65581;SDS011;52231;40.090;18.348;2023-04-03T06:15:01;16.92;;;5.28;;
65581;SDS011;52231;40.090;18.348;2023-04-03T06:19:57;14.40;;;4.65;;
65581;SDS011;52231;40.090;18.348;2023-04-03T06:22:29;19.65;;;5.00;;
65581;SDS011;52231;40.090;18.348;2023-04-03T06:24:58;20.40;;;5.55;;
65581;SDS011;52231;40.090;18.348;2023-04-03T06:27:26;19.80;;;5.47;;
65581;SDS011;52231;40.090;18.348;2023-04-03T06:29:55;14.77;;;4.97;;
65581;SDS011;52231;40.090;18.348;2023-04-03T06:32:23;21.77;;;5.63;;
65581;SDS011;52231;40.090;18.348;2023-04-03T06:34:51;18.13;;;5.47;;
65581;SDS011;52231;40.090;18.348;2023-04-03T06:37:21;15.85;;;5.35;;
65581;SDS011;52231;40.090;18.348;2023-04-03T06:39:53;23.15;;;5.72;;
65581;SDS011;52231;40.090;18.348;2023-04-03T06:42:22;13.55;;;4.55;;
65581;SDS011;52231;40.090;18.348;2023-04-03T06:44:58;17.77;;;5.18;;
65581;SDS011;52231;40.090;18.348;2023-04-03T06:47:27;21.55;;;4.93;;
65581;SDS011;52231;40.090;18.348;2023-04-03T06:49:56;21.42;;;5.38;;
65581;SDS011;52231;40.090;18.348;2023-04-03T06:52:25;21.15;;;4.93;;
65581;SDS011;52231;40.090;18.348;2023-04-03T06:54:58;14.20;;;4.70;;
65581;SDS011;52231;40.090;18.348;2023-04-03T06:57:28;19.20;;;5.55;;
65581;SDS011;52231;40.090;18.348;2023-04-03T06:59:56;22.52;;;5.20;;
65581;SDS011;52231;40.090;18.348;2023-04-03T07:02:24;22.33;;;5.10;;
65581;SDS011;52231;40.090;18.348;2023-04-03T07:04:53;19.88;;;4.43;;
65581;SDS011;52231;40.090;18.348;2023-04-03T07:07:22;15.82;;;4.47;;
65581;SDS011;52231;40.090;18.348;2023-04-03T07:12:19;15.38;;;4.70;;
65581;SDS011;52231;40.090;18.348;2023-04-03T07:14:48;24.75;;;4.70;;
65581;SDS011;52231;40.090;18.348;2023-04-03T07:17:16;14.05;;;5.38;;
65581;SDS011;52231;40.090;18.348;2023-04-03T07:19:44;15.98;;;5.05;;
65581;SDS011;52231;40.090;18.348;2023-04-03T07:22:13;17.13;;;3.55;;
65581;SDS011;52231;40.090;18.348;2023-04-03T07:24:42;15.00;;;4.60;;
65581;SDS011;52231;40.090;18.348;2023-04-03T07:27:12;14.75;;;4.70;;
65581;SDS011;52231;40.090;18.348;2023-04-03T07:29:52;16.02;;;4.40;;
65581;SDS011;52231;40.090;18.348;2023-04-03T07:32:22;12.82;;;3.15;;
65581;SDS011;52231;40.090;18.348;2023-04-03T07:34:51;11.85;;;3.90;;
65581;SDS011;52231;40.090;18.348;2023-04-03T07:37:19;12.27;;;3.67;;
65581;SDS011;52231;40.090;18.348;2023-04-03T07:42:17;10.57;;;3.22;;
65581;SDS011;52231;40.090;18.348;2023-04-03T07:47:17;8.20;;;2.67;;
65581;SDS011;52231;40.090;18.348;2023-04-03T07:49:46;13.07;;;2.78;;
65581;SDS011;52231;40.090;18.348;2023-04-03T07:54:43;11.32;;;2.53;;
65581;SDS011;52231;40.090;18.348;2023-04-03T07:57:14;10.32;;;2.80;;
65581;SDS011;52231;40.090;18.348;2023-04-03T07:59:42;10.45;;;2.83;;
65581;SDS011;52231;40.090;18.348;2023-04-03T08:02:11;9.77;;;2.33;;
65581;SDS011;52231;40.090;18.348;2023-04-03T08:05:00;9.02;;;2.50;;
65581;SDS011;52231;40.090;18.348;2023-04-03T08:07:32;7.60;;;2.05;;
65581;SDS011;52231;40.090;18.348;2023-04-03T08:10:08;12.55;;;2.50;;
65581;SDS011;52231;40.090;18.348;2023-04-03T08:12:51;7.60;;;2.17;;
65581;SDS011;52231;40.090;18.348;2023-04-03T08:15:53;7.15;;;2.33;;
65581;SDS011;52231;40.090;18.348;2023-04-03T08:18:39;8.85;;;2.47;;
65581;SDS011;52231;40.090;18.348;2023-04-03T08:21:10;12.82;;;2.25;;
65581;SDS011;52231;40.090;18.348;2023-04-03T08:23:47;16.52;;;2.47;;
65581;SDS011;52231;40.090;18.348;2023-04-03T08:26:18;11.88;;;3.22;;
65581;SDS011;52231;40.090;18.348;2023-04-03T08:28:48;13.25;;;2.65;;
65581;SDS011;52231;40.090;18.348;2023-04-03T08:31:19;12.38;;;3.00;;
65581;SDS011;52231;40.090;18.348;2023-04-03T08:33:56;11.93;;;2.80;;
65581;SDS011;52231;40.090;18.348;2023-04-03T08:38:54;13.63;;;2.75;;
65581;SDS011;52231;40.090;18.348;2023-04-03T08:49:41;13.43;;;3.55;;
65581;SDS011;52231;40.090;18.348;2023-04-03T08:52:16;14.23;;;3.53;;
65581;SDS011;52231;40.090;18.348;2023-04-03T08:54:57;13.45;;;3.65;;
65581;SDS011;52231;40.090;18.348;2023-04-03T08:57:39;13.82;;;3.22;;
65581;SDS011;52231;40.090;18.348;2023-04-03T09:02:42;13.63;;;3.28;;
65581;SDS011;52231;40.090;18.348;2023-04-03T09:05:33;10.57;;;3.10;;
65581;SDS011;52231;40.090;18.348;2023-04-03T09:08:16;10.27;;;3.13;;
65581;SDS011;52231;40.090;18.348;2023-04-03T09:13:59;14.00;;;2.65;;
65581;SDS011;52231;40.090;18.348;2023-04-03T09:16:39;15.40;;;3.00;;
65581;SDS011;52231;40.090;18.348;2023-04-03T09:22:26;13.27;;;3.13;;
65581;SDS011;52231;40.090;18.348;2023-04-03T09:25:05;12.48;;;2.42;;
65581;SDS011;52231;40.090;18.348;2023-04-03T09:28:02;8.98;;;2.63;;
65581;SDS011;52231;40.090;18.348;2023-04-03T09:30:37;6.65;;;1.92;;
65581;SDS011;52231;40.090;18.348;2023-04-03T09:33:06;11.60;;;2.40;;
65581;SDS011;52231;40.090;18.348;2023-04-03T09:35:37;10.73;;;2.90;;
65581;SDS011;52231;40.090;18.348;2023-04-03T09:40:42;8.88;;;2.40;;
65581;SDS011;52231;40.090;18.348;2023-04-03T09:43:23;11.32;;;2.53;;
65581;SDS011;52231;40.090;18.348;2023-04-03T09:45:54;4.88;;;1.80;;
65581;SDS011;52231;40.090;18.348;2023-04-03T09:48:25;7.93;;;1.98;;
65581;SDS011;52231;40.090;18.348;2023-04-03T09:50:56;7.70;;;1.98;;
65581;SDS011;52231;40.090;18.348;2023-04-03T09:55:58;8.48;;;1.90;;
65581;SDS011;52231;40.090;18.348;2023-04-03T09:58:38;7.65;;;2.08;;
65581;SDS011;52231;40.090;18.348;2023-04-03T10:01:25;11.00;;;2.53;;
65581;SDS011;52231;40.090;18.348;2023-04-03T10:04:09;7.88;;;2.05;;
65581;SDS011;52231;40.090;18.348;2023-04-03T10:06:40;9.35;;;2.05;;
65581;SDS011;52231;40.090;18.348;2023-04-03T10:09:19;12.20;;;2.53;;
65581;SDS011;52231;40.090;18.348;2023-04-03T10:17:43;7.15;;;2.00;;
65581;SDS011;52231;40.090;18.348;2023-04-03T10:20:35;6.68;;;1.60;;
65581;SDS011;52231;40.090;18.348;2023-04-03T10:23:24;13.90;;;1.98;;
65581;SDS011;52231;40.090;18.348;2023-04-03T10:26:09;10.18;;;2.10;;
65581;SDS011;52231;40.090;18.348;2023-04-03T10:28:57;7.32;;;1.90;;
65581;SDS011;52231;40.090;18.348;2023-04-03T10:31:41;7.63;;;2.22;;
65581;SDS011;52231;40.090;18.348;2023-04-03T10:34:40;12.98;;;2.15;;
65581;SDS011;52231;40.090;18.348;2023-04-03T10:37:20;5.53;;;1.48;;
65581;SDS011;52231;40.090;18.348;2023-04-03T10:40:30;10.02;;;1.60;;
65581;SDS011;52231;40.090;18.348;2023-04-03T10:46:05;4.47;;;1.67;;
65581;SDS011;52231;40.090;18.348;2023-04-03T10:52:02;7.63;;;1.42;;
65581;SDS011;52231;40.090;18.348;2023-04-03T10:54:41;6.47;;;1.50;;
65581;SDS011;52231;40.090;18.348;2023-04-03T10:57:23;10.15;;;2.95;;
65581;SDS011;52231;40.090;18.348;2023-04-03T10:59:53;5.65;;;2.05;;
65581;SDS011;52231;40.090;18.348;2023-04-03T11:02:32;8.48;;;1.70;;
65581;SDS011;52231;40.090;18.348;2023-04-03T11:05:21;6.18;;;1.67;;
65581;SDS011;52231;40.090;18.348;2023-04-03T11:07:59;8.80;;;1.63;;
65581;SDS011;52231;40.090;18.348;2023-04-03T11:10:39;8.48;;;1.63;;
65581;SDS011;52231;40.090;18.348;2023-04-03T11:13:13;5.28;;;1.10;;
65581;SDS011;52231;40.090;18.348;2023-04-03T11:15:53;6.20;;;1.30;;
65581;SDS011;52231;40.090;18.348;2023-04-03T11:18:25;6.05;;;1.13;;
65581;SDS011;52231;40.090;18.348;2023-04-03T11:21:11;9.43;;;1.80;;
65581;SDS011;52231;40.090;18.348;2023-04-03T11:23:54;7.57;;;1.73;;
65581;SDS011;52231;40.090;18.348;2023-04-03T11:26:27;10.75;;;1.60;;
65581;SDS011;52231;40.090;18.348;2023-04-03T11:29:04;12.15;;;2.28;;
65581;SDS011;52231;40.090;18.348;2023-04-03T11:32:06;7.00;;;1.70;;
65581;SDS011;52231;40.090;18.348;2023-04-03T11:34:36;10.63;;;3.38;;
65581;SDS011;52231;40.090;18.348;2023-04-03T11:42:46;9.35;;;2.08;;
65581;SDS011;52231;40.090;18.348;2023-04-03T11:48:01;8.60;;;2.28;;
65581;SDS011;52231;40.090;18.348;2023-04-03T11:50:44;10.55;;;2.35;;
65581;SDS011;52231;40.090;18.348;2023-04-03T11:55:51;8.05;;;1.90;;
65581;SDS011;52231;40.090;18.348;2023-04-03T11:58:26;10.75;;;1.77;;
65581;SDS011;52231;40.090;18.348;2023-04-03T12:14:02;9.98;;;1.80;;
65581;SDS011;52231;40.090;18.348;2023-04-03T12:24:28;10.07;;;2.10;;
65581;SDS011;52231;40.090;18.348;2023-04-03T12:27:09;21.58;;;2.08;;
65581;SDS011;52231;40.090;18.348;2023-04-03T12:38:31;5.25;;;1.65;;
65581;SDS011;52231;40.090;18.348;2023-04-03T12:44:17;6.38;;;1.30;;
65581;SDS011;52231;40.090;18.348;2023-04-03T12:46:55;8.68;;;1.88;;
65581;SDS011;52231;40.090;18.348;2023-04-03T12:52:18;7.75;;;1.70;;
65581;SDS011;52231;40.090;18.348;2023-04-03T12:55:16;11.20;;;1.52;;
65581;SDS011;52231;40.090;18.348;2023-04-03T12:57:51;8.07;;;1.70;;
65581;SDS011;52231;40.090;18.348;2023-04-03T13:03:05;11.38;;;1.85;;
65581;SDS011;52231;40.090;18.348;2023-04-03T13:05:46;9.60;;;1.60;;
65581;SDS011;52231;40.090;18.348;2023-04-03T13:08:16;13.52;;;1.70;;
65581;SDS011;52231;40.090;18.348;2023-04-03T13:11:11;11.63;;;1.60;;
65581;SDS011;52231;40.090;18.348;2023-04-03T13:13:53;7.05;;;1.20;;
65581;SDS011;52231;40.090;18.348;2023-04-03T13:16:28;8.35;;;1.30;;
65581;SDS011;52231;40.090;18.348;2023-04-03T13:18:57;12.68;;;1.58;;
65581;SDS011;52231;40.090;18.348;2023-04-03T13:21:30;9.43;;;1.95;;
65581;SDS011;52231;40.090;18.348;2023-04-03T13:24:02;9.10;;;2.53;;
65581;SDS011;52231;40.090;18.348;2023-04-03T13:26:38;9.77;;;1.73;;
65581;SDS011;52231;40.090;18.348;2023-04-03T13:31:51;9.70;;;2.65;;
65581;SDS011;52231;40.090;18.348;2023-04-03T13:34:28;9.80;;;2.72;;
65581;SDS011;52231;40.090;18.348;2023-04-03T13:37:03;5.90;;;1.90;;
65581;SDS011;52231;40.090;18.348;2023-04-03T13:39:36;8.27;;;1.63;;
65581;SDS011;52231;40.090;18.348;2023-04-03T13:42:24;9.10;;;1.98;;
65581;SDS011;52231;40.090;18.348;2023-04-03T13:45:11;11.27;;;1.75;;
65581;SDS011;52231;40.090;18.348;2023-04-03T13:48:06;5.00;;;1.60;;
65581;SDS011;52231;40.090;18.348;2023-04-03T13:53:23;7.28;;;1.30;;
65581;SDS011;52231;40.090;18.348;2023-04-03T13:56:07;8.52;;;1.63;;
65581;SDS011;52231;40.090;18.348;2023-04-03T13:59:03;6.78;;;1.38;;
65581;SDS011;52231;40.090;18.348;2023-04-03T14:02:15;4.18;;;1.17;;
65581;SDS011;52231;40.090;18.348;2023-04-03T14:04:44;6.00;;;1.25;;
65581;SDS011;52231;40.090;18.348;2023-04-03T14:07:13;5.57;;;1.10;;
65581;SDS011;52231;40.090;18.348;2023-04-03T14:09:43;7.40;;;1.42;;
65581;SDS011;52231;40.090;18.348;2023-04-03T14:12:14;8.02;;;1.83;;
65581;SDS011;52231;40.090;18.348;2023-04-03T14:15:00;7.00;;;1.20;;
65581;SDS011;52231;40.090;18.348;2023-04-03T14:17:30;8.52;;;1.30;;
65581;SDS011;52231;40.090;18.348;2023-04-03T14:19:59;4.72;;;1.27;;
65581;SDS011;52231;40.090;18.348;2023-04-03T14:22:30;7.63;;;1.50;;
65581;SDS011;52231;40.090;18.348;2023-04-03T14:25:01;4.13;;;1.27;;
65581;SDS011;52231;40.090;18.348;2023-04-03T14:27:39;5.05;;;1.52;;
65581;SDS011;52231;40.090;18.348;2023-04-03T14:32:56;6.70;;;1.50;;
65581;SDS011;52231;40.090;18.348;2023-04-03T14:35:30;5.40;;;1.25;;
65581;SDS011;52231;40.090;18.348;2023-04-03T14:37:59;4.85;;;1.55;;
65581;SDS011;52231;40.090;18.348;2023-04-03T14:40:28;3.85;;;1.00;;
65581;SDS011;52231;40.090;18.348;2023-04-03T14:42:59;2.65;;;1.10;;
65581;SDS011;52231;40.090;18.348;2023-04-03T14:45:27;4.65;;;1.10;;
65581;SDS011;52231;40.090;18.348;2023-04-03T14:50:26;2.75;;;1.00;;
65581;SDS011;52231;40.090;18.348;2023-04-03T14:52:56;3.47;;;1.20;;
65581;SDS011;52231;40.090;18.348;2023-04-03T14:55:28;3.78;;;1.20;;
65581;SDS011;52231;40.090;18.348;2023-04-03T14:58:01;3.17;;;1.10;;
65581;SDS011;52231;40.090;18.348;2023-04-03T15:00:29;3.42;;;1.30;;
65581;SDS011;52231;40.090;18.348;2023-04-03T15:02:58;2.97;;;1.00;;
65581;SDS011;52231;40.090;18.348;2023-04-03T15:05:29;3.97;;;1.10;;
65581;SDS011;52231;40.090;18.348;2023-04-03T15:07:58;1.85;;;0.73;;
65581;SDS011;52231;40.090;18.348;2023-04-03T15:10:29;5.00;;;1.30;;
65581;SDS011;52231;40.090;18.348;2023-04-03T15:12:58;8.95;;;1.85;;
65581;SDS011;52231;40.090;18.348;2023-04-03T15:15:28;7.07;;;2.95;;
65581;SDS011;52231;40.090;18.348;2023-04-03T15:17:58;7.85;;;3.25;;
65581;SDS011;52231;40.090;18.348;2023-04-03T15:20:28;5.63;;;2.47;;
65581;SDS011;52231;40.090;18.348;2023-04-03T15:23:01;7.20;;;2.60;;
65581;SDS011;52231;40.090;18.348;2023-04-03T15:25:32;7.80;;;2.53;;
65581;SDS011;52231;40.090;18.348;2023-04-03T15:28:01;8.18;;;3.50;;
65581;SDS011;52231;40.090;18.348;2023-04-03T15:30:33;9.25;;;3.40;;
65581;SDS011;52231;40.090;18.348;2023-04-03T15:33:06;14.15;;;4.10;;
65581;SDS011;52231;40.090;18.348;2023-04-03T15:35:41;7.40;;;3.25;;
65581;SDS011;52231;40.090;18.348;2023-04-03T15:38:14;9.18;;;4.20;;
65581;SDS011;52231;40.090;18.348;2023-04-03T15:40:43;7.68;;;2.83;;
65581;SDS011;52231;40.090;18.348;2023-04-03T15:43:17;8.90;;;3.85;;
65581;SDS011;52231;40.090;18.348;2023-04-03T15:45:49;8.10;;;3.30;;
65581;SDS011;52231;40.090;18.348;2023-04-03T15:48:18;8.43;;;3.75;;
65581;SDS011;52231;40.090;18.348;2023-04-03T15:50:48;6.70;;;2.83;;
65581;SDS011;52231;40.090;18.348;2023-04-03T15:53:19;7.15;;;2.88;;
65581;SDS011;52231;40.090;18.348;2023-04-03T15:55:48;9.60;;;3.20;;
65581;SDS011;52231;40.090;18.348;2023-04-03T15:58:19;11.38;;;5.32;;
65581;SDS011;52231;40.090;18.348;2023-04-03T16:00:51;15.05;;;7.78;;
65581;SDS011;52231;40.090;18.348;2023-04-03T16:03:20;20.73;;;11.98;;
65581;SDS011;52231;40.090;18.348;2023-04-03T16:05:52;13.80;;;6.45;;
65581;SDS011;52231;40.090;18.348;2023-04-03T16:08:24;14.25;;;6.68;;
65581;SDS011;52231;40.090;18.348;2023-04-03T16:10:56;11.80;;;6.28;;
65581;SDS011;52231;40.090;18.348;2023-04-03T16:13:29;12.00;;;5.15;;
65581;SDS011;52231;40.090;18.348;2023-04-03T16:15:59;11.27;;;5.05;;
65581;SDS011;52231;40.090;18.348;2023-04-03T16:18:30;13.93;;;5.65;;
65581;SDS011;52231;40.090;18.348;2023-04-03T16:21:03;13.70;;;6.32;;
65581;SDS011;52231;40.090;18.348;2023-04-03T16:23:34;15.80;;;7.40;;
65581;SDS011;52231;40.090;18.348;2023-04-03T16:26:08;10.27;;;4.88;;
65581;SDS011;52231;40.090;18.348;2023-04-03T16:28:38;11.63;;;4.80;;
65581;SDS011;52231;40.090;18.348;2023-04-03T16:31:07;12.75;;;6.50;;
65581;SDS011;52231;40.090;18.348;2023-04-03T16:33:41;14.35;;;6.85;;
65581;SDS011;52231;40.090;18.348;2023-04-03T16:36:10;15.18;;;8.82;;
65581;SDS011;52231;40.090;18.348;2023-04-03T16:38:44;24.05;;;15.38;;
65581;SDS011;52231;40.090;18.348;2023-04-03T16:41:15;21.88;;;14.30;;
65581;SDS011;52231;40.090;18.348;2023-04-03T16:43:44;18.92;;;10.85;;
65581;SDS011;52231;40.090;18.348;2023-04-03T16:46:14;17.75;;;11.23;;
65581;SDS011;52231;40.090;18.348;2023-04-03T16:48:43;19.58;;;11.48;;
65581;SDS011;52231;40.090;18.348;2023-04-03T16:51:12;20.90;;;11.30;;
65581;SDS011;52231;40.090;18.348;2023-04-03T16:53:50;19.40;;;11.10;;
65581;SDS011;52231;40.090;18.348;2023-04-03T16:56:20;23.10;;;11.30;;
65581;SDS011;52231;40.090;18.348;2023-04-03T16:58:49;22.85;;;12.98;;
65581;SDS011;52231;40.090;18.348;2023-04-03T17:01:18;24.10;;;10.93;;
65581;SDS011;52231;40.090;18.348;2023-04-03T17:03:50;16.45;;;10.32;;
65581;SDS011;52231;40.090;18.348;2023-04-03T17:06:19;16.30;;;9.85;;
65581;SDS011;52231;40.090;18.348;2023-04-03T17:08:52;18.95;;;10.38;;
65581;SDS011;52231;40.090;18.348;2023-04-03T17:11:27;23.85;;;10.90;;
65581;SDS011;52231;40.090;18.348;2023-04-03T17:14:02;20.17;;;10.02;;
65581;SDS011;52231;40.090;18.348;2023-04-03T17:16:39;15.77;;;9.05;;
65581;SDS011;52231;40.090;18.348;2023-04-03T17:19:08;18.02;;;11.57;;
65581;SDS011;52231;40.090;18.348;2023-04-03T17:21:39;17.60;;;9.93;;